Richboro, PA (18954)

9:42 AM EDT on July 26, 2016 (GMT -0400)
KPARICHB3 | | Change Station

Elev 358 ft 40.22 °N, 75.01 °W | Updated 2 minutes ago

Clear
Clear
76.8 °F
Feels Like 77 °F
N
0.0
Wind Variable Wind from SW
Gusts 0.7 mph

Today
High -- | Low -- °F
--% Chance of Precip.
Yesterday
High -- | Low -- °F
Precip. -- in
Pressure 29.94 in
Visibility 10.0 miles
Clouds Clear
Heat Index 77 °F
Dew Point 76 °F
Humidity 99%
Rainfall 0.13 in
Snow Depth Not available.
5:52 AM 8:19 PM
Waning Gibbous, 54% visible
METAR KDYL 261254Z AUTO VRB05KT 10SM CLR 25/22 A2995 RMK AO2 SLP138 T02500217 PNO
Pressure 29.94 in
Visibility 10.0 miles
Clouds Clear
Heat Index 77 °F
Dew Point 76 °F
Humidity 99%
Rainfall 0.13 in
Snow Depth Not available.
5:52 AM 8:19 PM
Waning Gibbous, 54% visible
METAR KDYL 261254Z AUTO VRB05KT 10SM CLR 25/22 A2995 RMK AO2 SLP138 T02500217 PNO

10-Day Weather Forecast

Almanac

Astronomy

Jul. 26, 2016 Rise Set
Actual Time
Civil Twilight
Nautical Twilight
Astronomical Twilight
Moon
Length of Visible Light
Length of Day
Tomorrow will be .
, % of the Moon is Illuminated

Today's Extremes

State Highs State Lows

Community

WunderPhotos

Upload Photos

1,927,587 photos uploaded!

WunderBlog® & News

Nearby

Air Quality

  Air Quality AQ Index Pollutant
Not available.

Snow Depth

Station Depth Elevation

Earthquake Activity

City Distance Mag. Time & Date
Minimum magnitude displayed is 2.5.

Coastal Water Temperatures

Place Temperature

Stations

Nearby Weather Stations

Station Location Temp. Windchill Dew Point Humidity Wind Precip. Elev Updated Type
                   

Watches & Warnings

There are currently no watches in effect.